Flight Track Log - Related Links

Times and Time Zones

All times are in EDT time to prevent confusion due to time zone crossing. See the EJA982 flight status page for this flight to view local times or setup timezone preferences in your user account.

Time Position Orientation Groundspeed Altitude Reporting Facility
EDT Latitude Longitude Course Direction KTS MPH feet Rate Location/Type
Thu 06:48:16 PM 35.3544 -118.9622 160° South 268 308 6,200  Level Los Angeles Center
Thu 06:49:18 PM 35.2831 -118.9278 159° South 273 314 8,700 2,516 Climbing Los Angeles Center
Thu 06:50:20 PM 35.2039 -118.9000 164° South 289 333 11,400 2,032 Climbing Los Angeles Center
Thu 06:51:22 PM 35.1053 -118.8653 164° South 357 411 12,900 1,597 Climbing Los Angeles Center
Thu 06:52:24 PM 35.0000 -118.8256 163° South 391 450 14,700 1,887 Climbing Los Angeles Center
Thu 06:53:00 PM 35.0212 -118.8928 160° South  Level FlightAware Approximate
Thu 06:53:26 PM 34.8750 -118.7786 163° South 427 491 16,800  Level Los Angeles Center
Thu 06:54:29 PM 34.7606 -118.7372 163° South 434 499 17,200 192 Climbing Los Angeles Center
Thu 06:55:31 PM 34.6419 -118.6931 163° South 446 513 17,200 -97 Level Los Angeles Center
Thu 06:56:33 PM 34.5228 -118.6486 163° South 448 516 17,000 -97 Descending Los Angeles Center
Thu 06:57:35 PM 34.3800 -118.5961 163° South 447 514 17,000  Level Los Angeles Center
Thu 06:58:37 PM 34.2619 -118.5544 164° South 442 509 17,000  Level Los Angeles Center
Thu 06:59:39 PM 34.1431 -118.5106 163° South 446 513 17,000  Level Los Angeles Center
Thu 07:00:41 PM 34.0097 -118.4614 163° South 451 519 17,000  Level Los Angeles Center
Thu 07:01:43 PM 33.9139 -118.4064 155° Southeast 441 507 17,000  Level Los Angeles Center
Thu 07:02:45 PM 33.8253 -118.2939 133° Southeast 451 519 17,000  Level Los Angeles Center
Thu 07:03:47 PM 33.7358 -118.1803 133° Southeast 451 519 17,000  Level Los Angeles Center
Thu 07:04:50 PM 33.6317 -118.0467 133° Southeast 452 520 17,000  Level Los Angeles Center
Thu 07:05:52 PM 33.5461 -117.9372 133° Southeast 450 518 17,000  Level Los Angeles Center
Thu 07:06:54 PM 33.4592 -117.8289 134° Southeast 451 519 17,000  Level Los Angeles Center
Thu 07:07:36 PM 33.3833 -117.7333 134° Southeast 447 514 17,000  Level Southern California TRACON
Thu 07:07:56 PM 33.3739 -117.7197 130° Southeast 448 516 17,000  Level Los Angeles Center
Thu 07:08:58 PM 33.2886 -117.6114 133° Southeast 449 517 17,000  Level Los Angeles Center
Thu 07:09:31 PM 33.2333 -117.5500 137° Southeast 452 520 17,000 -774 Level Southern California TRACON
Thu 07:10:31 PM 33.1167 -117.4500 144° Southeast 449 517 15,800 -1,187 Descending Southern California TRACON
Thu 07:11:02 PM 33.0892 -117.4392 162° South 436 502 15,200 -2,000 Descending Los Angeles Center
Thu 07:12:04 PM 32.9667 -117.3617 152° Southeast 423 487 12,700 -2,021 Descending Los Angeles Center
Thu 07:12:37 PM 32.9167 -117.3333 155° Southeast 357 411 12,000 -1,241 Descending Southern California TRACON
Thu 07:13:31 PM 32.8500 -117.2833 148° Southeast 289 333 10,900 -1,187 Descending Southern California TRACON
Thu 07:14:08 PM 32.8439 -117.2419 100° East 298 343 10,200 -1,140 Descending Los Angeles Center
Thu 07:15:11 PM 32.8242 -117.1778 110° East 244 281 9,000 -1,104 Descending Los Angeles Center
Thu 07:16:13 PM 32.8058 -117.1214 111° Southeast 208 239 7,900 -1,172 Descending Los Angeles Center
Thu 07:16:38 PM 32.8000 -117.0833 100° East 181 208 7,300 -635 Descending Southern California TRACON
Thu 07:17:38 PM 32.7833 -117.0333 112° Southeast 172 198 7,000 -150 Descending Southern California TRACON
Thu 07:18:38 PM 32.7667 -116.9833 112° Southeast 166 191 7,000 -365 Level Southern California TRACON
Thu 07:19:33 PM 32.7500 -116.9333 112° Southeast 165 190 6,300 -522 Descending Southern California TRACON
Thu 07:20:33 PM 32.7167 -116.9167 157° South 198 228 6,000 -200 Descending Southern California TRACON
Thu 07:21:33 PM 32.6833 -116.9667 232° Southwest 195 224 5,900 -700 Descending Southern California TRACON
Thu 07:22:33 PM 32.7000 -117.0333 287° West 187 215 4,600 -1,550 Descending Southern California TRACON
Thu 07:23:33 PM 32.7000 -117.0833 270° West 167 192 2,800 -1,810 Descending Southern California TRACON
Thu 07:24:29 PM 32.7197 -117.1292 297° West 165 190 1,100 -1,261 Descending Los Angeles Center
Thu 07:25:32 PM 32.7275 -117.1678 283° West 134 154 300 -480 Descending Los Angeles Center
Thu 07:26:34 PM 32.7364 -117.2042 286° West 131 151 100 -194 Descending Los Angeles Center

Login

Don't have an account? Register now (free) for customized features, flight alerts, and more!